sensor_id;sensor_type;location;lat;lon;timestamp;pressure;altitude;pressure_sealevel;temperature;humidity
73455;BME280;61690;51.824;6.306;2023-04-06T00:01:16;101761.53;;;15.82;46.97
73455;BME280;61690;51.824;6.306;2023-04-06T00:03:41;101759.66;;;15.85;46.61
73455;BME280;61690;51.824;6.306;2023-04-06T00:06:07;101763.22;;;15.84;46.69
73455;BME280;61690;51.824;6.306;2023-04-06T00:08:32;101751.94;;;15.82;46.76
73455;BME280;61690;51.824;6.306;2023-04-06T00:10:58;101755.78;;;15.72;46.91
73455;BME280;61690;51.824;6.306;2023-04-06T00:13:23;101748.56;;;15.79;46.82
73455;BME280;61690;51.824;6.306;2023-04-06T00:15:48;101744.31;;;15.76;47.05
73455;BME280;61690;51.824;6.306;2023-04-06T00:18:14;101733.72;;;15.78;46.82
73455;BME280;61690;51.824;6.306;2023-04-06T00:20:39;101740.75;;;15.77;46.71
73455;BME280;61690;51.824;6.306;2023-04-06T00:23:05;101739.31;;;15.68;47.07
73455;BME280;61690;51.824;6.306;2023-04-06T00:25:30;101732.03;;;15.77;46.75
73455;BME280;61690;51.824;6.306;2023-04-06T00:27:56;101730.53;;;15.69;47.00
73455;BME280;61690;51.824;6.306;2023-04-06T00:30:21;101720.94;;;15.68;46.90
73455;BME280;61690;51.824;6.306;2023-04-06T00:32:46;101720.16;;;15.66;47.12
73455;BME280;61690;51.824;6.306;2023-04-06T00:35:12;101722.78;;;15.66;46.87
73455;BME280;61690;51.824;6.306;2023-04-06T00:37:37;101723.47;;;15.72;46.80
73455;BME280;61690;51.824;6.306;2023-04-06T00:40:03;101716.63;;;15.67;47.00
73455;BME280;61690;51.824;6.306;2023-04-06T00:42:29;101724.56;;;15.66;47.02
73455;BME280;61690;51.824;6.306;2023-04-06T00:44:58;101714.91;;;15.66;47.11
73455;BME280;61690;51.824;6.306;2023-04-06T00:47:25;101715.91;;;15.64;46.81
73455;BME280;61690;51.824;6.306;2023-04-06T00:49:51;101711.69;;;15.60;47.16
73455;BME280;61690;51.824;6.306;2023-04-06T00:52:16;101714.38;;;15.58;47.10
73455;BME280;61690;51.824;6.306;2023-04-06T00:54:42;101710.06;;;15.57;46.91
73455;BME280;61690;51.824;6.306;2023-04-06T00:57:07;101709.97;;;15.59;47.21
73455;BME280;61690;51.824;6.306;2023-04-06T00:59:32;101706.69;;;15.54;47.16
73455;BME280;61690;51.824;6.306;2023-04-06T01:01:58;101704.81;;;15.57;47.25
73455;BME280;61690;51.824;6.306;2023-04-06T01:04:23;101700.53;;;15.55;47.11
73455;BME280;61690;51.824;6.306;2023-04-06T01:06:49;101698.03;;;15.52;47.26
73455;BME280;61690;51.824;6.306;2023-04-06T01:09:15;101697.91;;;15.55;47.23
73455;BME280;61690;51.824;6.306;2023-04-06T01:11:40;101692.97;;;15.47;47.49
73455;BME280;61690;51.824;6.306;2023-04-06T01:14:06;101687.78;;;15.45;47.40
73455;BME280;61690;51.824;6.306;2023-04-06T01:16:32;101682.53;;;15.45;47.19
73455;BME280;61690;51.824;6.306;2023-04-06T01:18:57;101684.97;;;15.50;47.16
73455;BME280;61690;51.824;6.306;2023-04-06T01:21:23;101677.91;;;15.52;47.10
73455;BME280;61690;51.824;6.306;2023-04-06T01:23:48;101687.72;;;15.47;47.43
73455;BME280;61690;51.824;6.306;2023-04-06T01:26:14;101679.06;;;15.45;47.40
73455;BME280;61690;51.824;6.306;2023-04-06T01:28:39;101667.78;;;15.43;47.25
73455;BME280;61690;51.824;6.306;2023-04-06T01:31:08;101667.78;;;15.43;47.30
73455;BME280;61690;51.824;6.306;2023-04-06T01:33:34;101669.72;;;15.38;47.48
73455;BME280;61690;51.824;6.306;2023-04-06T01:36:00;101664.25;;;15.44;47.18
73455;BME280;61690;51.824;6.306;2023-04-06T01:38:25;101667.78;;;15.43;47.44
73455;BME280;61690;51.824;6.306;2023-04-06T01:40:51;101662.69;;;15.40;47.42
73455;BME280;61690;51.824;6.306;2023-04-06T01:43:17;101661.16;;;15.34;47.57
73455;BME280;61690;51.824;6.306;2023-04-06T01:45:42;101661.94;;;15.36;47.41
73455;BME280;61690;51.824;6.306;2023-04-06T01:48:07;101662.72;;;15.38;47.28
73455;BME280;61690;51.824;6.306;2023-04-06T01:50:33;101654.88;;;15.38;47.76
73455;BME280;61690;51.824;6.306;2023-04-06T01:52:58;101654.13;;;15.35;47.50
73455;BME280;61690;51.824;6.306;2023-04-06T01:55:24;101658.59;;;15.33;47.64
73455;BME280;61690;51.824;6.306;2023-04-06T01:57:49;101656.13;;;15.28;47.49
73455;BME280;61690;51.824;6.306;2023-04-06T02:00:15;101654.50;;;15.25;47.67
73455;BME280;61690;51.824;6.306;2023-04-06T02:02:41;101649.00;;;15.32;47.38
73455;BME280;61690;51.824;6.306;2023-04-06T02:05:07;101649.97;;;15.29;47.40
73455;BME280;61690;51.824;6.306;2023-04-06T02:07:33;101649.25;;;15.25;47.75
73455;BME280;61690;51.824;6.306;2023-04-06T02:09:58;101643.09;;;15.26;47.49
73455;BME280;61690;51.824;6.306;2023-04-06T02:12:24;101647.53;;;15.24;47.74
73455;BME280;61690;51.824;6.306;2023-04-06T02:14:49;101646.56;;;15.27;47.69
73455;BME280;61690;51.824;6.306;2023-04-06T02:17:15;101635.25;;;15.26;47.45
73455;BME280;61690;51.824;6.306;2023-04-06T02:19:40;101636.09;;;15.27;47.34
73455;BME280;61690;51.824;6.306;2023-04-06T02:22:06;101635.59;;;15.17;47.65
73455;BME280;61690;51.824;6.306;2023-04-06T02:24:31;101637.13;;;15.23;47.65
73455;BME280;61690;51.824;6.306;2023-04-06T02:26:57;101638.09;;;15.20;47.77
73455;BME280;61690;51.824;6.306;2023-04-06T02:29:23;101637.28;;;15.18;47.77
73455;BME280;61690;51.824;6.306;2023-04-06T02:31:48;101636.34;;;15.21;47.74
73455;BME280;61690;51.824;6.306;2023-04-06T02:34:13;101635.72;;;15.14;47.79
73455;BME280;61690;51.824;6.306;2023-04-06T02:36:46;101632.19;;;15.15;47.65
73455;BME280;61690;51.824;6.306;2023-04-06T02:39:12;101630.81;;;15.05;47.97
73455;BME280;61690;51.824;6.306;2023-04-06T02:41:37;101627.41;;;15.03;47.95
73455;BME280;61690;51.824;6.306;2023-04-06T02:44:03;101632.41;;;15.09;47.74
73455;BME280;61690;51.824;6.306;2023-04-06T02:46:28;101630.72;;;15.08;47.95
73455;BME280;61690;51.824;6.306;2023-04-06T02:48:54;101625.81;;;14.99;48.09
73455;BME280;61690;51.824;6.306;2023-04-06T02:51:20;101624.78;;;15.03;47.81
73455;BME280;61690;51.824;6.306;2023-04-06T02:53:45;101620.47;;;15.02;48.00
73455;BME280;61690;51.824;6.306;2023-04-06T02:56:10;101618.75;;;15.01;47.91
73455;BME280;61690;51.824;6.306;2023-04-06T02:58:36;101623.25;;;14.97;48.18
73455;BME280;61690;51.824;6.306;2023-04-06T03:01:02;101622.22;;;15.01;47.74
73455;BME280;61690;51.824;6.306;2023-04-06T03:03:27;101615.44;;;14.96;48.11
73455;BME280;61690;51.824;6.306;2023-04-06T03:05:52;101615.22;;;15.02;48.05
73455;BME280;61690;51.824;6.306;2023-04-06T03:08:19;101613.91;;;15.14;47.82
73455;BME280;61690;51.824;6.306;2023-04-06T03:10:44;101607.63;;;15.40;47.48
73455;BME280;61690;51.824;6.306;2023-04-06T03:13:10;101610.19;;;15.62;46.65
73455;BME280;61690;51.824;6.306;2023-04-06T03:15:35;101610.13;;;15.85;45.92
73455;BME280;61690;51.824;6.306;2023-04-06T03:18:01;101601.84;;;16.15;45.30
73455;BME280;61690;51.824;6.306;2023-04-06T03:20:26;101601.75;;;16.37;45.00
73455;BME280;61690;51.824;6.306;2023-04-06T03:22:51;101607.25;;;16.52;44.71
73455;BME280;61690;51.824;6.306;2023-04-06T03:25:17;101597.94;;;16.63;44.47
73455;BME280;61690;51.824;6.306;2023-04-06T03:27:42;101597.28;;;16.77;43.91
73455;BME280;61690;51.824;6.306;2023-04-06T03:30:07;101600.31;;;16.89;43.98
73455;BME280;61690;51.824;6.306;2023-04-06T03:32:33;101597.47;;;16.93;43.64
73455;BME280;61690;51.824;6.306;2023-04-06T03:34:58;101596.31;;;16.99;43.50
73455;BME280;61690;51.824;6.306;2023-04-06T03:37:24;101594.66;;;17.15;43.36
73455;BME280;61690;51.824;6.306;2023-04-06T03:39:49;101590.31;;;17.14;43.43
73455;BME280;61690;51.824;6.306;2023-04-06T03:42:14;101590.75;;;17.24;42.99
73455;BME280;61690;51.824;6.306;2023-04-06T03:44:40;101586.66;;;17.36;42.89
73455;BME280;61690;51.824;6.306;2023-04-06T03:47:05;101588.16;;;17.41;42.62
73455;BME280;61690;51.824;6.306;2023-04-06T03:49:30;101585.72;;;17.37;42.83
73455;BME280;61690;51.824;6.306;2023-04-06T03:51:56;101587.00;;;17.47;42.85
73455;BME280;61690;51.824;6.306;2023-04-06T03:54:21;101597.97;;;17.55;42.78
73455;BME280;61690;51.824;6.306;2023-04-06T03:56:47;101582.81;;;17.60;42.69
73455;BME280;61690;51.824;6.306;2023-04-06T03:59:12;101588.84;;;17.62;42.49
73455;BME280;61690;51.824;6.306;2023-04-06T04:01:38;101587.06;;;17.63;42.71
73455;BME280;61690;51.824;6.306;2023-04-06T04:04:04;101582.44;;;17.68;42.80
73455;BME280;61690;51.824;6.306;2023-04-06T04:06:30;101592.47;;;17.60;42.88
73455;BME280;61690;51.824;6.306;2023-04-06T04:08:55;101586.50;;;17.56;42.94
73455;BME280;61690;51.824;6.306;2023-04-06T04:11:21;101585.03;;;17.51;42.95
73455;BME280;61690;51.824;6.306;2023-04-06T04:13:46;101589.13;;;17.39;43.52
73455;BME280;61690;51.824;6.306;2023-04-06T04:16:12;101586.88;;;17.31;43.43
73455;BME280;61690;51.824;6.306;2023-04-06T04:18:37;101590.84;;;17.40;43.37
73455;BME280;61690;51.824;6.306;2023-04-06T04:21:02;101587.59;;;17.52;43.00
73455;BME280;61690;51.824;6.306;2023-04-06T04:23:28;101584.97;;;17.70;42.75
73455;BME280;61690;51.824;6.306;2023-04-06T04:25:53;101588.69;;;17.83;42.66
73455;BME280;61690;51.824;6.306;2023-04-06T04:28:18;101582.97;;;17.92;42.57
73455;BME280;61690;51.824;6.306;2023-04-06T04:30:44;101583.75;;;17.94;42.39
73455;BME280;61690;51.824;6.306;2023-04-06T04:33:10;101586.22;;;17.97;42.13
73455;BME280;61690;51.824;6.306;2023-04-06T04:35:35;101588.69;;;18.00;42.10
73455;BME280;61690;51.824;6.306;2023-04-06T04:38:00;101588.22;;;18.10;41.86
73455;BME280;61690;51.824;6.306;2023-04-06T04:40:26;101583.72;;;18.12;42.09
73455;BME280;61690;51.824;6.306;2023-04-06T04:42:51;101583.56;;;18.15;42.01
73455;BME280;61690;51.824;6.306;2023-04-06T04:45:17;101585.56;;;18.10;42.45
73455;BME280;61690;51.824;6.306;2023-04-06T04:47:42;101580.25;;;18.11;42.42
73455;BME280;61690;51.824;6.306;2023-04-06T04:50:08;101584.25;;;18.18;42.24
73455;BME280;61690;51.824;6.306;2023-04-06T04:52:33;101583.09;;;18.24;42.16
73455;BME280;61690;51.824;6.306;2023-04-06T04:54:58;101577.47;;;18.30;41.88
73455;BME280;61690;51.824;6.306;2023-04-06T04:57:23;101587.59;;;18.22;41.96
73455;BME280;61690;51.824;6.306;2023-04-06T04:59:49;101577.81;;;18.24;42.25
73455;BME280;61690;51.824;6.306;2023-04-06T05:02:16;101580.28;;;18.27;42.08
73455;BME280;61690;51.824;6.306;2023-04-06T05:04:41;101587.00;;;18.33;41.73
73455;BME280;61690;51.824;6.306;2023-04-06T05:07:07;101581.38;;;18.23;41.92
73455;BME280;61690;51.824;6.306;2023-04-06T05:09:33;101591.38;;;18.16;42.11
73455;BME280;61690;51.824;6.306;2023-04-06T05:11:59;101593.81;;;18.03;42.56
73455;BME280;61690;51.824;6.306;2023-04-06T05:14:25;101587.16;;;17.96;42.91
73455;BME280;61690;51.824;6.306;2023-04-06T05:16:51;101587.00;;;17.82;43.17
73455;BME280;61690;51.824;6.306;2023-04-06T05:19:16;101580.34;;;17.75;43.00
73455;BME280;61690;51.824;6.306;2023-04-06T05:21:42;101584.19;;;17.68;43.60
73455;BME280;61690;51.824;6.306;2023-04-06T05:24:07;101581.88;;;17.61;43.65
73455;BME280;61690;51.824;6.306;2023-04-06T05:26:33;101582.25;;;17.54;43.87
73455;BME280;61690;51.824;6.306;2023-04-06T05:28:59;101574.69;;;17.48;43.96
73455;BME280;61690;51.824;6.306;2023-04-06T05:31:24;101582.50;;;17.49;44.23
73455;BME280;61690;51.824;6.306;2023-04-06T05:33:49;101577.72;;;17.57;45.14
73455;BME280;61690;51.824;6.306;2023-04-06T05:36:15;101567.22;;;18.41;43.15
73455;BME280;61690;51.824;6.306;2023-04-06T05:38:40;101578.78;;;18.39;43.47
73455;BME280;61690;51.824;6.306;2023-04-06T05:41:06;101580.13;;;18.30;43.56
73455;BME280;61690;51.824;6.306;2023-04-06T05:43:31;101580.19;;;18.29;43.28
73455;BME280;61690;51.824;6.306;2023-04-06T05:45:56;101569.44;;;18.16;43.91
73455;BME280;61690;51.824;6.306;2023-04-06T05:48:22;101574.22;;;18.09;44.30
73455;BME280;61690;51.824;6.306;2023-04-06T05:50:50;101577.19;;;18.19;43.82
73455;BME280;61690;51.824;6.306;2023-04-06T05:53:16;101569.84;;;18.26;43.64
73455;BME280;61690;51.824;6.306;2023-04-06T05:55:41;101570.09;;;18.37;43.91
73455;BME280;61690;51.824;6.306;2023-04-06T05:58:07;101567.66;;;18.50;44.10
73455;BME280;61690;51.824;6.306;2023-04-06T06:00:32;101570.63;;;18.59;44.13
73455;BME280;61690;51.824;6.306;2023-04-06T06:02:57;101566.47;;;18.71;44.18
73455;BME280;61690;51.824;6.306;2023-04-06T06:05:23;101561.03;;;18.74;44.45
73455;BME280;61690;51.824;6.306;2023-04-06T06:07:48;101564.13;;;18.83;44.02
73455;BME280;61690;51.824;6.306;2023-04-06T06:10:14;101562.84;;;18.90;44.22
73455;BME280;61690;51.824;6.306;2023-04-06T06:12:39;101552.63;;;18.99;44.09
73455;BME280;61690;51.824;6.306;2023-04-06T06:15:05;101557.47;;;19.07;44.04
73455;BME280;61690;51.824;6.306;2023-04-06T06:17:31;101561.38;;;19.16;43.94
73455;BME280;61690;51.824;6.306;2023-04-06T06:19:56;101563.91;;;19.17;44.25
73455;BME280;61690;51.824;6.306;2023-04-06T06:22:21;101567.06;;;19.24;44.15
73455;BME280;61690;51.824;6.306;2023-04-06T06:24:46;101564.25;;;19.27;44.63
73455;BME280;61690;51.824;6.306;2023-04-06T06:27:12;101567.28;;;19.35;44.43
73455;BME280;61690;51.824;6.306;2023-04-06T06:29:37;101566.25;;;19.38;44.48
73455;BME280;61690;51.824;6.306;2023-04-06T06:32:03;101568.44;;;19.46;44.54
73455;BME280;61690;51.824;6.306;2023-04-06T06:34:28;101560.06;;;19.53;44.78
73455;BME280;61690;51.824;6.306;2023-04-06T06:36:53;101564.91;;;19.61;44.76
73455;BME280;61690;51.824;6.306;2023-04-06T06:39:20;101564.97;;;19.59;44.54
73455;BME280;61690;51.824;6.306;2023-04-06T06:41:46;101567.16;;;19.53;44.77
73455;BME280;61690;51.824;6.306;2023-04-06T06:44:11;101570.84;;;19.50;45.07
73455;BME280;61690;51.824;6.306;2023-04-06T06:46:36;101562.69;;;19.39;45.55
73455;BME280;61690;51.824;6.306;2023-04-06T06:49:01;101560.66;;;19.28;45.58
73455;BME280;61690;51.824;6.306;2023-04-06T06:51:28;101567.34;;;19.19;45.68
73455;BME280;61690;51.824;6.306;2023-04-06T06:53:53;101557.72;;;19.18;46.50
73455;BME280;61690;51.824;6.306;2023-04-06T06:56:18;101563.16;;;19.15;46.63
73455;BME280;61690;51.824;6.306;2023-04-06T06:58:44;101561.53;;;19.13;46.87
73455;BME280;61690;51.824;6.306;2023-04-06T07:01:10;101561.81;;;19.08;46.66
73455;BME280;61690;51.824;6.306;2023-04-06T07:03:35;101561.22;;;19.03;46.99
73455;BME280;61690;51.824;6.306;2023-04-06T07:06:00;101560.47;;;19.01;47.09
73455;BME280;61690;51.824;6.306;2023-04-06T07:08:26;101560.53;;;18.99;47.20
73455;BME280;61690;51.824;6.306;2023-04-06T07:10:52;101563.44;;;18.95;46.96
73455;BME280;61690;51.824;6.306;2023-04-06T07:13:19;101558.25;;;18.93;47.12
73455;BME280;61690;51.824;6.306;2023-04-06T07:15:47;101554.09;;;18.89;47.32
73455;BME280;61690;51.824;6.306;2023-04-06T07:18:12;101555.97;;;18.87;47.10
73455;BME280;61690;51.824;6.306;2023-04-06T07:20:37;101549.06;;;18.85;47.27
73455;BME280;61690;51.824;6.306;2023-04-06T07:23:03;101545.66;;;18.83;47.45
73455;BME280;61690;51.824;6.306;2023-04-06T07:25:29;101550.19;;;18.80;47.54
73455;BME280;61690;51.824;6.306;2023-04-06T07:27:54;101547.59;;;18.79;47.80
73455;BME280;61690;51.824;6.306;2023-04-06T07:30:20;101547.59;;;18.79;48.02
73455;BME280;61690;51.824;6.306;2023-04-06T07:32:47;101547.69;;;18.77;47.92
73455;BME280;61690;51.824;6.306;2023-04-06T07:35:12;101545.22;;;18.74;47.98
73455;BME280;61690;51.824;6.306;2023-04-06T07:37:38;101549.66;;;18.74;48.05
73455;BME280;61690;51.824;6.306;2023-04-06T07:40:03;101546.34;;;18.70;48.33
73455;BME280;61690;51.824;6.306;2023-04-06T07:42:29;101542.00;;;18.69;48.29
73455;BME280;61690;51.824;6.306;2023-04-06T07:44:54;101541.16;;;18.69;48.61
73455;BME280;61690;51.824;6.306;2023-04-06T07:47:19;101542.06;;;18.68;48.33
73455;BME280;61690;51.824;6.306;2023-04-06T07:49:45;101534.16;;;18.68;48.48
73455;BME280;61690;51.824;6.306;2023-04-06T07:52:10;101540.38;;;18.67;48.30
73455;BME280;61690;51.824;6.306;2023-04-06T07:54:36;101538.16;;;18.59;48.68
73455;BME280;61690;51.824;6.306;2023-04-06T07:57:01;101529.66;;;18.54;47.91
73455;BME280;61690;51.824;6.306;2023-04-06T07:59:26;101536.03;;;18.50;47.94
73455;BME280;61690;51.824;6.306;2023-04-06T08:01:52;101539.69;;;18.47;47.80
73455;BME280;61690;51.824;6.306;2023-04-06T08:04:17;101537.31;;;18.42;48.21
73455;BME280;61690;51.824;6.306;2023-04-06T08:06:42;101536.72;;;18.53;48.60
73455;BME280;61690;51.824;6.306;2023-04-06T08:09:07;101534.00;;;18.71;47.37
73455;BME280;61690;51.824;6.306;2023-04-06T08:11:33;101536.56;;;18.72;47.47
73455;BME280;61690;51.824;6.306;2023-04-06T08:13:58;101539.00;;;18.75;47.65
73455;BME280;61690;51.824;6.306;2023-04-06T08:16:24;101542.59;;;18.74;47.37
73455;BME280;61690;51.824;6.306;2023-04-06T08:18:49;101531.00;;;18.77;47.79
73455;BME280;61690;51.824;6.306;2023-04-06T08:21:15;101533.66;;;18.77;47.91
73455;BME280;61690;51.824;6.306;2023-04-06T08:23:40;101531.78;;;18.79;47.58
73455;BME280;61690;51.824;6.306;2023-04-06T08:26:06;101530.19;;;18.76;47.66
73455;BME280;61690;51.824;6.306;2023-04-06T08:28:31;101534.38;;;18.80;48.13
73455;BME280;61690;51.824;6.306;2023-04-06T08:30:57;101526.47;;;18.80;48.06
73455;BME280;61690;51.824;6.306;2023-04-06T08:33:22;101524.75;;;18.79;47.83
73455;BME280;61690;51.824;6.306;2023-04-06T08:35:48;101529.09;;;18.80;48.39
73455;BME280;61690;51.824;6.306;2023-04-06T08:38:13;101528.19;;;18.82;47.94
73455;BME280;61690;51.824;6.306;2023-04-06T08:40:39;101524.75;;;18.79;48.02
73455;BME280;61690;51.824;6.306;2023-04-06T08:43:06;101523.97;;;18.77;48.37
73455;BME280;61690;51.824;6.306;2023-04-06T08:45:35;101522.28;;;18.76;48.57
73455;BME280;61690;51.824;6.306;2023-04-06T08:48:01;101522.09;;;18.79;48.29
73455;BME280;61690;51.824;6.306;2023-04-06T08:50:29;101515.00;;;18.82;48.69
73455;BME280;61690;51.824;6.306;2023-04-06T08:52:55;101515.06;;;18.80;48.60
73455;BME280;61690;51.824;6.306;2023-04-06T08:55:21;101515.22;;;18.77;48.42
73455;BME280;61690;51.824;6.306;2023-04-06T08:57:48;101508.16;;;18.77;48.54
73455;BME280;61690;51.824;6.306;2023-04-06T09:00:14;101514.19;;;18.79;48.79
73455;BME280;61690;51.824;6.306;2023-04-06T09:02:43;101508.16;;;18.77;48.80
73455;BME280;61690;51.824;6.306;2023-04-06T09:05:10;101511.56;;;18.79;48.66
73455;BME280;61690;51.824;6.306;2023-04-06T09:07:36;101509.94;;;18.77;48.96
73455;BME280;61690;51.824;6.306;2023-04-06T09:10:03;101507.56;;;18.72;48.75
73455;BME280;61690;51.824;6.306;2023-04-06T09:12:31;101511.13;;;18.71;48.38
73455;BME280;61690;51.824;6.306;2023-04-06T09:14:57;101511.31;;;18.68;48.53
73455;BME280;61690;51.824;6.306;2023-04-06T09:17:25;101507.56;;;18.72;48.22
73455;BME280;61690;51.824;6.306;2023-04-06T09:19:51;101505.63;;;18.76;47.81
73455;BME280;61690;51.824;6.306;2023-04-06T09:22:17;101509.16;;;18.75;48.43
73455;BME280;61690;51.824;6.306;2023-04-06T09:24:45;101505.69;;;18.74;48.11
73455;BME280;61690;51.824;6.306;2023-04-06T09:27:11;101505.38;;;18.80;48.14
73455;BME280;61690;51.824;6.306;2023-04-06T09:29:37;101504.59;;;18.78;48.49
73455;BME280;61690;51.824;6.306;2023-04-06T09:32:04;101502.75;;;18.80;48.21
73455;BME280;61690;51.824;6.306;2023-04-06T09:34:30;101505.28;;;18.82;48.57
73455;BME280;61690;51.824;6.306;2023-04-06T09:36:56;101505.28;;;18.82;48.54
73455;BME280;61690;51.824;6.306;2023-04-06T09:39:21;101510.66;;;18.80;48.44
73455;BME280;61690;51.824;6.306;2023-04-06T09:41:50;101504.44;;;18.82;48.50
73455;BME280;61690;51.824;6.306;2023-04-06T09:44:16;101499.00;;;18.85;48.36
73455;BME280;61690;51.824;6.306;2023-04-06T09:46:42;101500.16;;;18.79;48.49
73455;BME280;61690;51.824;6.306;2023-04-06T09:49:10;101502.09;;;18.75;48.05
73455;BME280;61690;51.824;6.306;2023-04-06T09:51:37;101499.66;;;18.72;47.79
73455;BME280;61690;51.824;6.306;2023-04-06T09:54:03;101499.81;;;18.69;47.93
73455;BME280;61690;51.824;6.306;2023-04-06T09:56:56;101501.69;;;18.67;47.79
73455;BME280;61690;51.824;6.306;2023-04-06T09:59:26;101500.09;;;18.65;47.94
73455;BME280;61690;51.824;6.306;2023-04-06T10:01:58;101501.88;;;18.64;47.43
73455;BME280;61690;51.824;6.306;2023-04-06T10:07:01;101495.84;;;18.62;47.67
73455;BME280;61690;51.824;6.306;2023-04-06T10:09:28;101485.41;;;18.60;47.21
73455;BME280;61690;51.824;6.306;2023-04-06T10:12:04;101489.78;;;18.60;47.06
73455;BME280;61690;51.824;6.306;2023-04-06T10:14:32;101490.66;;;18.60;47.15
73455;BME280;61690;51.824;6.306;2023-04-06T10:16:59;101488.13;;;18.59;46.76
73455;BME280;61690;51.824;6.306;2023-04-06T10:19:34;101493.38;;;18.59;46.84
73455;BME280;61690;51.824;6.306;2023-04-06T10:22:02;101491.66;;;18.58;46.87
73455;BME280;61690;51.824;6.306;2023-04-06T10:24:28;101496.94;;;18.58;46.61
73455;BME280;61690;51.824;6.306;2023-04-06T10:27:03;101496.84;;;18.59;46.67
73455;BME280;61690;51.824;6.306;2023-04-06T10:29:42;101495.25;;;18.57;46.65
73455;BME280;61690;51.824;6.306;2023-04-06T10:32:08;101501.38;;;18.57;46.37
73455;BME280;61690;51.824;6.306;2023-04-06T10:34:36;101503.06;;;18.58;46.50
73455;BME280;61690;51.824;6.306;2023-04-06T10:37:15;101505.03;;;18.55;46.55
73455;BME280;61690;51.824;6.306;2023-04-06T10:40:17;101500.53;;;18.57;46.25
73455;BME280;61690;51.824;6.306;2023-04-06T10:42:43;101502.97;;;18.60;46.48
73455;BME280;61690;51.824;6.306;2023-04-06T10:45:19;101500.19;;;18.63;46.63
73455;BME280;61690;51.824;6.306;2023-04-06T10:47:45;101500.09;;;18.65;47.02
73455;BME280;61690;51.824;6.306;2023-04-06T10:50:14;101494.56;;;18.69;47.01
73455;BME280;61690;51.824;6.306;2023-04-06T10:52:40;101493.63;;;18.70;47.22
73455;BME280;61690;51.824;6.306;2023-04-06T10:55:07;101493.56;;;18.72;47.39
73455;BME280;61690;51.824;6.306;2023-04-06T10:57:34;101496.19;;;18.72;47.27
73455;BME280;61690;51.824;6.306;2023-04-06T11:00:02;101495.16;;;18.74;47.41
73455;BME280;61690;51.824;6.306;2023-04-06T11:02:29;101495.75;;;18.79;47.93
73455;BME280;61690;51.824;6.306;2023-04-06T11:04:58;101498.38;;;18.79;47.52
73455;BME280;61690;51.824;6.306;2023-04-06T11:07:26;101492.34;;;18.77;47.79
73455;BME280;61690;51.824;6.306;2023-04-06T11:09:52;101502.75;;;18.80;48.07
73455;BME280;61690;51.824;6.306;2023-04-06T11:17:30;101498.16;;;18.84;48.30
73455;BME280;61690;51.824;6.306;2023-04-06T11:19:57;101504.19;;;18.86;48.70
73455;BME280;61690;51.824;6.306;2023-04-06T11:22:23;101492.72;;;18.87;48.39
73455;BME280;61690;51.824;6.306;2023-04-06T11:24:49;101497.03;;;18.88;48.46
73455;BME280;61690;51.824;6.306;2023-04-06T11:27:15;101493.84;;;18.83;48.59
73455;BME280;61690;51.824;6.306;2023-04-06T11:29:44;101499.94;;;18.84;47.89
73455;BME280;61690;51.824;6.306;2023-04-06T11:32:20;101500.06;;;18.96;47.27
73455;BME280;61690;51.824;6.306;2023-04-06T11:34:48;101494.94;;;19.09;47.58
73455;BME280;61690;51.824;6.306;2023-04-06T11:37:14;101502.03;;;19.23;47.19
73455;BME280;61690;51.824;6.306;2023-04-06T11:42:06;101494.47;;;19.47;47.35
73455;BME280;61690;51.824;6.306;2023-04-06T11:44:32;101493.94;;;19.56;47.33
73455;BME280;61690;51.824;6.306;2023-04-06T11:47:03;101489.88;;;19.65;46.91
73455;BME280;61690;51.824;6.306;2023-04-06T11:49:30;101490.41;;;19.72;47.14
73455;BME280;61690;51.824;6.306;2023-04-06T11:51:58;101490.78;;;19.80;47.31
73455;BME280;61690;51.824;6.306;2023-04-06T11:54:35;101486.81;;;19.87;46.82
73455;BME280;61690;51.824;6.306;2023-04-06T11:57:04;101474.94;;;19.94;46.90
73455;BME280;61690;51.824;6.306;2023-04-06T11:59:29;101480.59;;;20.03;46.96
73455;BME280;61690;51.824;6.306;2023-04-06T12:01:56;101482.00;;;20.08;46.48
73455;BME280;61690;51.824;6.306;2023-04-06T12:04:22;101482.44;;;20.15;46.68
73455;BME280;61690;51.824;6.306;2023-04-06T12:06:48;101480.56;;;20.17;46.69
73455;BME280;61690;51.824;6.306;2023-04-06T12:09:13;101482.66;;;20.12;46.43
73455;BME280;61690;51.824;6.306;2023-04-06T12:11:39;101472.47;;;20.06;45.61
73455;BME280;61690;51.824;6.306;2023-04-06T12:14:06;101480.50;;;20.04;45.68
73455;BME280;61690;51.824;6.306;2023-04-06T12:16:33;101485.03;;;20.02;45.88
73455;BME280;61690;51.824;6.306;2023-04-06T12:19:09;101478.13;;;20.00;46.24
73455;BME280;61690;51.824;6.306;2023-04-06T12:21:36;101472.84;;;20.00;46.46
73455;BME280;61690;51.824;6.306;2023-04-06T12:24:06;101478.34;;;19.96;46.22
73455;BME280;61690;51.824;6.306;2023-04-06T12:26:32;101475.56;;;19.98;46.02
73455;BME280;61690;51.824;6.306;2023-04-06T12:28:59;101474.66;;;19.99;46.10
73455;BME280;61690;51.824;6.306;2023-04-06T12:31:35;101468.63;;;19.97;46.13
73455;BME280;61690;51.824;6.306;2023-04-06T12:34:02;101474.06;;;19.94;45.92
73455;BME280;61690;51.824;6.306;2023-04-06T12:36:28;101475.97;;;19.92;45.71
73455;BME280;61690;51.824;6.306;2023-04-06T12:38:54;101479.47;;;19.92;45.54
73455;BME280;61690;51.824;6.306;2023-04-06T12:41:19;101473.25;;;19.93;44.97
73455;BME280;61690;51.824;6.306;2023-04-06T12:43:46;101477.75;;;19.91;45.12
73455;BME280;61690;51.824;6.306;2023-04-06T12:46:11;101474.06;;;19.94;45.01
73455;BME280;61690;51.824;6.306;2023-04-06T12:48:37;101480.41;;;19.91;45.12
73455;BME280;61690;51.824;6.306;2023-04-06T12:51:05;101484.19;;;19.87;45.10
73455;BME280;61690;51.824;6.306;2023-04-06T12:53:32;101485.41;;;19.82;44.96
73455;BME280;61690;51.824;6.306;2023-04-06T12:56:01;101486.25;;;19.82;45.02